createdAt,value
2018-09-06T00:00:35.264Z,29.87
2018-09-06T00:03:11.425Z,29.88
2018-09-06T00:05:48.100Z,29.88
2018-09-06T00:08:24.230Z,29.89
2018-09-06T00:11:00.397Z,29.89
2018-09-06T00:13:36.425Z,29.87
2018-09-06T00:16:12.862Z,29.88
2018-09-06T00:18:48.941Z,29.87
2018-09-06T00:21:25.273Z,29.88
2018-09-06T00:24:01.305Z,29.88
2018-09-06T00:26:37.276Z,29.88
2018-09-06T00:29:13.298Z,29.88
2018-09-06T00:31:49.281Z,29.87
2018-09-06T00:34:25.284Z,29.88
2018-09-06T00:37:02.009Z,29.87
2018-09-06T00:39:38.120Z,29.87
2018-09-06T00:42:14.292Z,29.87
2018-09-06T00:44:50.313Z,29.86
2018-09-06T00:47:26.106Z,29.86
2018-09-06T00:50:02.227Z,29.85
2018-09-06T00:52:38.112Z,29.85
2018-09-06T00:55:14.367Z,29.87
2018-09-06T00:57:51.390Z,29.87
2018-09-06T01:00:27.391Z,29.87
2018-09-06T01:03:03.318Z,29.87
2018-09-06T01:05:39.112Z,29.87
2018-09-06T01:08:16.053Z,29.87
2018-09-06T01:10:52.085Z,29.87
2018-09-06T01:13:28.005Z,29.88
2018-09-06T01:16:04.145Z,29.86
2018-09-06T01:18:40.321Z,29.85
2018-09-06T01:21:16.321Z,29.86
2018-09-06T01:25:46.538Z,29.88
2018-09-06T01:28:23.973Z,29.89
2018-09-06T01:31:00.924Z,29.90
2018-09-06T01:33:37.314Z,29.89
2018-09-06T01:36:16.278Z,29.90
2018-09-06T01:38:52.118Z,29.91
2018-09-06T01:41:28.247Z,29.91
2018-09-06T01:44:04.009Z,29.92
2018-09-06T01:48:28.533Z,29.93
2018-09-06T01:51:04.851Z,29.92
2018-09-06T01:53:41.681Z,29.92
2018-09-06T01:56:18.329Z,29.90
2018-09-06T01:58:54.131Z,29.91
2018-09-06T02:01:31.133Z,29.89
2018-09-06T02:04:07.345Z,29.90
2018-09-06T02:06:43.364Z,29.88
2018-09-06T02:09:19.485Z,29.85
2018-09-06T02:11:55.933Z,29.82
2018-09-06T02:14:32.042Z,29.78
2018-09-06T02:17:08.140Z,29.74
2018-09-06T02:19:45.123Z,29.71
2018-09-06T02:22:21.114Z,29.68
2018-09-06T02:24:57.427Z,29.66
2018-09-06T02:27:33.609Z,29.64
2018-09-06T02:30:10.063Z,29.63
2018-09-06T02:32:46.731Z,29.60
2018-09-06T02:35:23.127Z,29.56
2018-09-06T02:37:59.266Z,29.56
2018-09-06T02:40:42.490Z,29.62
2018-09-06T02:43:18.945Z,29.69
2018-09-06T02:45:55.324Z,29.77
2018-09-06T02:48:35.319Z,29.84
2018-09-06T02:51:15.531Z,29.88
2018-09-06T02:53:51.224Z,29.93
2018-09-06T02:56:27.333Z,29.96
2018-09-06T02:59:03.158Z,29.99
2018-09-06T03:01:39.172Z,30.02
2018-09-06T03:04:15.434Z,30.02
2018-09-06T03:06:51.493Z,30.04
2018-09-06T03:12:07.715Z,29.96
2018-09-06T03:14:44.279Z,30.01
2018-09-06T03:17:20.542Z,30.08
2018-09-06T03:19:56.827Z,30.12
2018-09-06T03:22:33.162Z,30.14
2018-09-06T03:25:09.522Z,30.15
2018-09-06T03:27:45.534Z,30.14
2018-09-06T03:30:21.909Z,30.15
2018-09-06T03:32:58.066Z,30.16
2018-09-06T03:35:34.124Z,30.18
2018-09-06T03:38:10.310Z,30.18
2018-09-06T03:40:47.743Z,30.16
2018-09-06T03:43:24.338Z,30.14
2018-09-06T03:46:00.379Z,30.11
2018-09-06T03:48:36.385Z,30.07
2018-09-06T03:51:12.525Z,30.03
2018-09-06T03:53:48.362Z,29.99
2018-09-06T03:56:25.159Z,29.95
2018-09-06T03:59:02.149Z,29.93
2018-09-06T04:01:38.366Z,29.90
2018-09-06T04:04:14.541Z,29.88
2018-09-06T04:06:50.407Z,29.85
2018-09-06T04:09:26.418Z,29.83
2018-09-06T04:12:02.595Z,29.82
2018-09-06T04:14:38.642Z,29.80
2018-09-06T04:17:15.184Z,29.79
2018-09-06T04:19:51.186Z,29.78
2018-09-06T04:22:27.209Z,29.77
2018-09-06T04:25:03.184Z,29.78
2018-09-06T04:27:39.180Z,29.79
2018-09-06T04:30:15.186Z,29.80
2018-09-06T04:32:51.210Z,29.80
2018-09-06T04:37:17.172Z,29.83
2018-09-06T04:39:53.517Z,29.81
2018-09-06T04:42:29.562Z,29.81
2018-09-06T04:45:06.383Z,29.80
2018-09-06T04:47:43.107Z,29.80
2018-09-06T04:50:19.194Z,29.79
2018-09-06T04:52:55.520Z,29.77
2018-09-06T04:55:31.617Z,29.76
2018-09-06T04:58:07.544Z,29.75
2018-09-06T05:00:43.846Z,29.74
2018-09-06T05:03:20.180Z,29.72
2018-09-06T05:05:56.009Z,29.70
2018-09-06T05:08:32.199Z,29.66
2018-09-06T05:11:08.376Z,29.65
2018-09-06T05:13:44.444Z,29.65
2018-09-06T05:16:20.409Z,29.64
2018-09-06T05:18:56.425Z,29.63
2018-09-06T05:21:32.598Z,29.62
2018-09-06T05:24:08.850Z,29.61
2018-09-06T05:26:45.173Z,29.61
2018-09-06T05:29:21.393Z,29.61
2018-09-06T05:31:57.497Z,29.61
2018-09-06T05:34:33.562Z,29.60
2018-09-06T05:37:10.397Z,29.60
2018-09-06T05:39:46.574Z,29.59
2018-09-06T05:42:23.185Z,29.56
2018-09-06T05:44:59.334Z,29.56
2018-09-06T05:47:35.550Z,29.55
2018-09-06T05:50:11.969Z,29.54
2018-09-06T05:52:47.809Z,29.52
2018-09-06T05:55:24.189Z,29.51
2018-09-06T05:58:00.247Z,29.50
2018-09-06T06:00:40.037Z,29.49
2018-09-06T06:03:16.447Z,29.48
2018-09-06T06:05:52.601Z,29.46
2018-09-06T06:08:43.410Z,29.44
2018-09-06T06:11:20.219Z,29.42
2018-09-06T06:13:56.424Z,29.38
2018-09-06T06:16:32.399Z,29.38
2018-09-06T06:19:08.421Z,29.33
2018-09-06T06:21:44.442Z,29.31
2018-09-06T06:24:20.456Z,29.29
2018-09-06T06:26:56.419Z,29.21
2018-09-06T06:29:32.432Z,29.11
2018-09-06T06:32:08.489Z,29.18
2018-09-06T06:34:44.845Z,29.26
2018-09-06T06:37:20.839Z,29.29
2018-09-06T06:39:57.278Z,29.33
2018-09-06T06:42:33.431Z,29.33
2018-09-06T06:45:09.242Z,29.34
2018-09-06T06:47:45.415Z,29.36
2018-09-06T06:50:21.427Z,29.39
2018-09-06T06:52:57.413Z,29.41
2018-09-06T06:55:33.530Z,29.41
2018-09-06T06:58:09.518Z,29.43
2018-09-06T07:00:46.195Z,29.43
2018-09-06T07:03:22.172Z,29.44
2018-09-06T07:05:58.094Z,29.44
2018-09-06T07:08:34.139Z,29.46
2018-09-06T07:11:10.181Z,29.45
2018-09-06T07:13:46.181Z,29.45
2018-09-06T07:16:22.258Z,29.44
2018-09-06T07:18:58.426Z,29.43
2018-09-06T07:21:35.575Z,29.43
2018-09-06T07:24:11.949Z,29.42
2018-09-06T07:26:48.049Z,29.42
2018-09-06T07:29:25.049Z,29.40
2018-09-06T07:32:01.886Z,29.42
2018-09-06T07:34:38.225Z,29.39
2018-09-06T07:37:14.638Z,29.40
2018-09-06T07:39:50.951Z,29.39
2018-09-06T07:42:27.264Z,29.39
2018-09-06T07:45:03.290Z,29.38
2018-09-06T07:47:39.255Z,29.38
2018-09-06T07:50:15.283Z,29.37
2018-09-06T07:52:52.442Z,29.37
2018-09-06T07:55:28.466Z,29.37
2018-09-06T07:58:04.666Z,29.37
2018-09-06T08:00:43.651Z,29.36
2018-09-06T08:03:20.604Z,29.36
2018-09-06T08:05:57.434Z,29.34
2018-09-06T08:08:33.448Z,29.34
2018-09-06T08:11:09.995Z,29.33
2018-09-06T08:13:46.417Z,29.32
2018-09-06T08:16:23.050Z,29.32
2018-09-06T08:19:00.508Z,29.32
2018-09-06T08:21:36.825Z,29.32
2018-09-06T08:24:13.081Z,29.32
2018-09-06T08:26:49.449Z,29.31
2018-09-06T08:29:25.743Z,29.30
2018-09-06T08:32:02.483Z,29.32
2018-09-06T08:34:38.489Z,29.30
2018-09-06T08:37:14.441Z,29.30
2018-09-06T08:39:50.637Z,29.29
2018-09-06T08:42:26.894Z,29.28
2018-09-06T08:45:03.332Z,29.27
2018-09-06T08:47:40.267Z,29.27
2018-09-06T08:50:16.401Z,29.27
2018-09-06T08:52:52.823Z,29.24
2018-09-06T08:55:28.763Z,29.24
2018-09-06T08:58:05.847Z,29.23
2018-09-06T09:00:44.484Z,29.23
2018-09-06T09:03:20.419Z,29.22
2018-09-06T09:05:59.705Z,29.21
2018-09-06T09:08:35.654Z,29.20
2018-09-06T09:11:11.876Z,29.20
2018-09-06T09:13:48.273Z,29.20
2018-09-06T09:16:24.299Z,29.18
2018-09-06T09:19:00.521Z,29.19
2018-09-06T09:21:36.915Z,29.18
2018-09-06T09:24:13.074Z,29.17
2018-09-06T09:26:50.054Z,29.17
2018-09-06T09:29:26.289Z,29.17
2018-09-06T09:32:02.621Z,29.16
2018-09-06T09:34:38.316Z,29.15
2018-09-06T09:37:14.689Z,29.14
2018-09-06T09:39:51.652Z,29.14
2018-09-06T09:42:28.058Z,29.14
2018-09-06T09:45:04.446Z,29.13
2018-09-06T09:47:40.634Z,29.12
2018-09-06T09:52:52.322Z,29.12
2018-09-06T09:55:28.782Z,29.12
2018-09-06T09:58:05.332Z,29.11
2018-09-06T10:00:44.422Z,29.10
2018-09-06T10:03:24.514Z,29.09
2018-09-06T10:06:06.320Z,29.09
2018-09-06T10:08:46.566Z,29.09
2018-09-06T10:11:22.482Z,29.09
2018-09-06T10:13:58.535Z,29.06
2018-09-06T10:16:34.673Z,29.05
2018-09-06T10:19:11.645Z,29.06
2018-09-06T10:21:48.176Z,29.05
2018-09-06T10:24:24.335Z,29.03
2018-09-06T10:27:00.498Z,29.01
2018-09-06T10:29:36.655Z,29.00
2018-09-06T10:32:12.549Z,29.00
2018-09-06T10:34:48.899Z,29.00
2018-09-06T10:37:25.050Z,29.00
2018-09-06T10:40:01.180Z,28.98
2018-09-06T10:42:38.275Z,28.98
2018-09-06T10:45:14.494Z,28.97
2018-09-06T10:47:50.586Z,28.98
2018-09-06T10:50:26.550Z,28.97
2018-09-06T10:53:02.710Z,28.95
2018-09-06T10:55:39.322Z,28.95
2018-09-06T10:58:15.485Z,28.95
2018-09-06T11:00:52.649Z,28.94
2018-09-06T11:03:29.210Z,28.94
2018-09-06T11:06:05.653Z,28.95
2018-09-06T11:08:42.157Z,28.95
2018-09-06T11:11:18.323Z,28.94
2018-09-06T11:13:54.561Z,28.94
2018-09-06T11:16:31.089Z,28.94
2018-09-06T11:19:07.178Z,28.93
2018-09-06T11:21:43.772Z,28.92
2018-09-06T11:24:20.334Z,28.92
2018-09-06T11:26:57.329Z,28.91
2018-09-06T11:29:33.638Z,28.91
2018-09-06T11:32:10.062Z,28.90
2018-09-06T11:34:46.283Z,28.90
2018-09-06T11:37:22.453Z,28.89
2018-09-06T11:39:58.743Z,28.89
2018-09-06T11:42:35.343Z,28.88
2018-09-06T11:45:12.530Z,28.87
2018-09-06T11:47:48.801Z,28.86
2018-09-06T11:50:25.181Z,28.86
2018-09-06T11:53:01.519Z,28.84
2018-09-06T11:55:38.355Z,28.84
2018-09-06T11:58:14.245Z,28.84
2018-09-06T12:00:50.688Z,28.84
2018-09-06T12:03:27.006Z,28.83
2018-09-06T12:06:03.104Z,28.82
2018-09-06T12:08:39.342Z,28.81
2018-09-06T12:11:15.516Z,28.81
2018-09-06T12:13:51.714Z,28.81
2018-09-06T12:16:28.485Z,28.82
2018-09-06T12:19:04.748Z,28.81
2018-09-06T12:21:40.830Z,28.80
2018-09-06T12:24:16.710Z,28.80
2018-09-06T12:26:54.353Z,28.79
2018-09-06T12:29:30.582Z,28.80
2018-09-06T12:32:06.598Z,28.80
2018-09-06T12:34:43.216Z,28.79
2018-09-06T12:37:19.197Z,28.78
2018-09-06T12:39:55.214Z,28.79
2018-09-06T12:42:31.711Z,28.78
2018-09-06T12:45:08.262Z,28.77
2018-09-06T12:47:46.809Z,28.76
2018-09-06T12:50:23.269Z,28.77
2018-09-06T12:52:59.479Z,28.75
2018-09-06T12:55:36.004Z,28.75
2018-09-06T12:58:12.253Z,28.73
2018-09-06T13:00:48.718Z,28.72
2018-09-06T13:03:25.333Z,28.72
2018-09-06T13:06:02.665Z,28.72
2018-09-06T13:08:39.536Z,28.70
2018-09-06T13:11:15.954Z,28.70
2018-09-06T13:13:52.313Z,28.70
2018-09-06T13:16:28.524Z,28.68
2018-09-06T13:19:04.769Z,28.69
2018-09-06T13:21:40.872Z,28.67
2018-09-06T13:24:18.345Z,28.66
2018-09-06T13:26:54.401Z,28.66
2018-09-06T13:29:30.289Z,28.67
2018-09-06T13:32:06.552Z,28.66
2018-09-06T13:34:42.721Z,28.66
2018-09-06T13:37:18.717Z,28.66
2018-09-06T13:39:55.134Z,28.65
2018-09-06T13:42:31.185Z,28.65
2018-09-06T13:45:07.581Z,28.64
2018-09-06T13:47:44.018Z,28.65
2018-09-06T13:50:20.829Z,28.62
2018-09-06T13:52:57.349Z,28.61
2018-09-06T13:55:33.568Z,28.62
2018-09-06T13:58:10.062Z,28.62
2018-09-06T14:00:46.619Z,28.61
2018-09-06T14:03:22.578Z,28.58
2018-09-06T14:05:58.612Z,28.58
2018-09-06T14:08:35.507Z,28.59
2018-09-06T14:11:12.549Z,28.60
2018-09-06T14:13:49.590Z,28.60
2018-09-06T14:16:25.395Z,28.60
2018-09-06T14:19:01.760Z,28.59
2018-09-06T14:21:38.232Z,28.58
2018-09-06T14:24:14.623Z,28.57
2018-09-06T14:26:50.806Z,28.56
2018-09-06T14:29:26.743Z,28.58
2018-09-06T14:32:02.596Z,28.56
2018-09-06T14:34:40.348Z,28.56
2018-09-06T14:37:16.772Z,28.55
2018-09-06T14:39:52.659Z,28.54
2018-09-06T14:42:28.626Z,28.55
2018-09-06T14:45:04.884Z,28.54
2018-09-06T14:47:41.396Z,28.54
2018-09-06T14:50:17.515Z,28.52
2018-09-06T14:52:53.585Z,28.52
2018-09-06T14:55:29.519Z,28.53
2018-09-06T14:58:05.737Z,28.54
2018-09-06T15:00:42.065Z,28.54
2018-09-06T15:03:19.983Z,28.54
2018-09-06T15:05:56.603Z,28.56
2018-09-06T15:08:32.403Z,28.55
2018-09-06T15:11:08.401Z,28.54
2018-09-06T15:13:44.441Z,28.54
2018-09-06T15:16:20.808Z,28.53
2018-09-06T15:18:57.391Z,28.54
2018-09-06T15:21:33.121Z,28.45
2018-09-06T15:24:20.793Z,28.33
2018-09-06T15:26:58.316Z,28.42
2018-09-06T15:29:36.954Z,28.51
2018-09-06T15:32:13.771Z,28.57
2018-09-06T15:34:49.828Z,28.63
2018-09-06T15:37:25.778Z,28.64
2018-09-06T15:40:02.381Z,28.68
2018-09-06T15:42:38.762Z,28.69
2018-09-06T15:45:14.637Z,28.71
2018-09-06T15:47:51.002Z,28.73
2018-09-06T15:50:27.177Z,28.75
2018-09-06T15:53:03.148Z,28.75
2018-09-06T15:55:39.611Z,28.75
2018-09-06T15:58:15.699Z,28.76
2018-09-06T16:00:52.061Z,28.78
2018-09-06T16:03:28.578Z,28.78
2018-09-06T16:06:05.322Z,28.78
2018-09-06T16:08:42.655Z,28.79
2018-09-06T16:11:18.818Z,28.78
2018-09-06T16:13:56.074Z,28.77
2018-09-06T16:16:33.140Z,28.78
2018-09-06T16:19:10.399Z,28.80
2018-09-06T16:21:46.797Z,28.82
2018-09-06T16:24:23.341Z,28.83
2018-09-06T16:26:59.833Z,28.86
2018-09-06T16:29:35.701Z,28.87
2018-09-06T16:32:11.757Z,28.88
2018-09-06T16:34:48.441Z,28.89
2018-09-06T16:37:24.664Z,28.89
2018-09-06T16:40:01.219Z,28.91
2018-09-06T16:42:37.272Z,28.92
2018-09-06T16:45:13.870Z,28.92
2018-09-06T16:47:50.421Z,28.93
2018-09-06T16:50:26.613Z,28.95
2018-09-06T16:53:02.837Z,28.95
2018-09-06T16:55:39.201Z,28.96
2018-09-06T16:58:15.745Z,28.95
2018-09-06T17:00:52.393Z,28.93
2018-09-06T17:03:28.561Z,28.92
2018-09-06T17:06:04.434Z,28.90
2018-09-06T17:08:40.437Z,28.89
2018-09-06T17:11:16.472Z,28.88
2018-09-06T17:13:52.487Z,28.89
2018-09-06T17:16:28.598Z,28.87
2018-09-06T17:19:04.634Z,28.88
2018-09-06T17:21:40.574Z,28.88
2018-09-06T17:24:16.831Z,28.88
2018-09-06T17:26:52.694Z,28.88
2018-09-06T17:29:28.997Z,28.90
2018-09-06T17:32:05.617Z,28.92
2018-09-06T17:34:41.625Z,28.93
2018-09-06T17:37:17.782Z,28.93
2018-09-06T17:39:55.365Z,28.94
2018-09-06T17:42:33.945Z,28.97
2018-09-06T17:45:11.441Z,28.97
2018-09-06T17:47:47.604Z,28.98
2018-09-06T17:50:23.645Z,28.98
2018-09-06T17:53:00.082Z,28.99
2018-09-06T17:55:36.631Z,29.00
2018-09-06T17:58:12.817Z,29.00
2018-09-06T18:01:55.265Z,29.01
2018-09-06T18:04:32.267Z,29.05
2018-09-06T18:07:08.438Z,29.03
2018-09-06T18:09:44.693Z,29.04
2018-09-06T18:12:22.201Z,29.05
2018-09-06T18:14:58.414Z,29.06
2018-09-06T18:17:34.716Z,29.08
2018-09-06T18:20:11.881Z,29.09
2018-09-06T18:22:48.340Z,29.08
2018-09-06T18:25:24.855Z,28.85
2018-09-06T18:28:01.641Z,28.89
2018-09-06T18:30:37.692Z,28.93
2018-09-06T18:33:13.675Z,28.98
2018-09-06T18:35:50.462Z,29.01
2018-09-06T18:38:26.734Z,29.04
2018-09-06T18:41:03.838Z,29.07
2018-09-06T18:43:40.076Z,29.10
2018-09-06T18:46:17.593Z,29.13
2018-09-06T18:48:53.657Z,29.15
2018-09-06T18:51:30.451Z,29.18
2018-09-06T18:54:06.680Z,29.20
2018-09-06T18:56:43.642Z,29.23
2018-09-06T18:59:20.257Z,29.26
2018-09-06T19:01:56.653Z,29.27
2018-09-06T19:04:33.656Z,29.29
2018-09-06T19:07:10.718Z,29.31
2018-09-06T19:09:46.811Z,29.33
2018-09-06T19:12:22.921Z,29.34
2018-09-06T19:14:58.699Z,29.36
2018-09-06T19:17:35.484Z,29.38
2018-09-06T19:20:11.608Z,29.40
2018-09-06T19:22:47.485Z,29.41
2018-09-06T19:25:23.689Z,29.43
2018-09-06T19:28:00.484Z,29.45
2018-09-06T19:30:37.405Z,29.48
2018-09-06T19:33:13.486Z,29.49
2018-09-06T19:35:49.937Z,29.51
2018-09-06T19:38:26.498Z,29.53
2018-09-06T19:41:02.824Z,29.53
2018-09-06T19:43:41.098Z,29.55
2018-09-06T19:46:17.496Z,29.56
2018-09-06T19:48:55.269Z,29.57
2018-09-06T19:51:31.672Z,29.58
2018-09-06T19:54:07.930Z,29.60
2018-09-06T19:56:44.221Z,29.61
2018-09-06T19:59:20.355Z,29.63
2018-09-06T20:01:56.762Z,29.63
2018-09-06T20:04:32.737Z,29.64
2018-09-06T20:07:09.220Z,29.66
2018-09-06T20:09:46.659Z,29.66
2018-09-06T20:12:22.623Z,29.68
2018-09-06T20:15:02.491Z,29.69
2018-09-06T20:17:38.718Z,29.71
2018-09-06T20:20:14.913Z,29.71
2018-09-06T20:22:51.180Z,29.74
2018-09-06T20:25:27.244Z,29.75
2018-09-06T20:28:03.583Z,29.76
2018-09-06T20:30:40.343Z,29.79
2018-09-06T20:33:16.252Z,29.78
2018-09-06T20:35:52.646Z,29.79
2018-09-06T20:38:28.514Z,29.80
2018-09-06T20:41:04.713Z,29.82
2018-09-06T20:43:41.121Z,29.84
2018-09-06T20:46:17.519Z,29.84
2018-09-06T20:48:54.731Z,29.86
2018-09-06T20:51:30.886Z,29.86
2018-09-06T20:54:07.214Z,29.88
2018-09-06T20:56:43.508Z,29.89
2018-09-06T20:59:19.803Z,29.91
2018-09-06T21:01:56.764Z,29.91
2018-09-06T21:04:33.235Z,29.92
2018-09-06T21:07:09.526Z,29.92
2018-09-06T21:09:45.557Z,29.93
2018-09-06T21:12:22.272Z,29.94
2018-09-06T21:14:59.922Z,29.95
2018-09-06T21:17:35.733Z,29.95
2018-09-06T21:20:12.500Z,29.98
2018-09-06T21:22:49.241Z,29.97
2018-09-06T21:25:58.696Z,29.95
2018-09-06T21:28:34.941Z,29.98
2018-09-06T21:31:11.437Z,30.01
2018-09-06T21:33:47.702Z,30.01
2018-09-06T21:36:24.429Z,30.01
2018-09-06T21:39:00.707Z,30.02
2018-09-06T21:41:36.761Z,30.05
2018-09-06T21:44:13.265Z,30.06
2018-09-06T21:46:49.865Z,30.07
2018-09-06T21:49:25.907Z,30.07
2018-09-06T21:52:02.438Z,30.09
2018-09-06T21:55:55.227Z,30.04
2018-09-06T21:58:31.705Z,30.10
2018-09-06T22:01:07.717Z,30.12
2018-09-06T22:03:48.289Z,30.11
2018-09-06T22:06:24.541Z,30.14
2018-09-06T22:09:00.746Z,30.14
2018-09-06T22:11:36.668Z,30.15
2018-09-06T22:14:12.881Z,30.17
2018-09-06T22:16:48.925Z,30.18
2018-09-06T22:19:25.233Z,30.17
2018-09-06T22:22:01.319Z,30.18
2018-09-06T22:24:42.125Z,30.19
2018-09-06T22:27:18.436Z,30.21
2018-09-06T22:29:54.673Z,30.21
2018-09-06T22:32:30.563Z,30.22
2018-09-06T22:35:07.127Z,30.22
2018-09-06T22:37:43.117Z,30.22
2018-09-06T22:40:19.390Z,30.24
2018-09-06T22:42:55.749Z,30.25
2018-09-06T22:45:31.766Z,30.24
2018-09-06T22:48:08.186Z,30.25
2018-09-06T22:50:44.753Z,30.26
2018-09-06T22:53:20.885Z,30.26
2018-09-06T22:55:57.260Z,30.26
2018-09-06T22:58:33.397Z,30.24
2018-09-06T23:01:10.386Z,30.29
2018-09-06T23:03:47.403Z,30.30
2018-09-06T23:06:23.687Z,30.31
2018-09-06T23:08:59.615Z,30.31
2018-09-06T23:11:36.737Z,30.32
2018-09-06T23:14:14.395Z,30.31
2018-09-06T23:16:50.573Z,30.33
2018-09-06T23:19:27.029Z,30.34
2018-09-06T23:22:03.181Z,30.35
2018-09-06T23:24:39.340Z,30.35
2018-09-06T23:27:15.750Z,30.34
2018-09-06T23:29:51.742Z,30.35
2018-09-06T23:32:27.646Z,30.34
2018-09-06T23:35:03.851Z,30.35
2018-09-06T23:37:40.317Z,30.42
2018-09-06T23:40:16.536Z,30.42
2018-09-06T23:42:52.726Z,30.38
2018-09-06T23:45:28.498Z,30.33
2018-09-06T23:48:04.374Z,30.32
2018-09-06T23:50:40.045Z,30.30
2018-09-06T23:53:17.085Z,30.28
2018-09-06T23:55:58.079Z,30.28
2018-09-06T23:58:33.865Z,30.27
